Time;durP1;ratioP1;P1;durP2;ratioP2;P2;SDS_P1;SDS_P2;PMS_P1;PMS_P2;Temp;Humidity;BMP_temperature;BMP_pressure;BME280_temperature;BME280_humidity;BME280_pressure;Samples;Min_cycle;Max_cycle;Signal;HPM_P1;HPM_P2
2022/01/30 00:00:05;;;;;;;407.90;91.60;;;;;;;2.40;60.16;100227.88;342580;28;1493;-70
2022/01/30 00:00:15;;;;;;;406.40;92.78;;;;;;;2.41;60.14;100218.41;342680;28;1566;-69
2022/01/30 00:00:26;;;;;;;402.02;90.35;;;;;;;2.40;59.73;100220.13;342776;28;2055;-69
2022/01/30 00:00:36;;;;;;;398.67;88.85;;;;;;;2.40;59.51;100222.69;341346;28;1624;-70
2022/01/30 00:00:47;;;;;;;401.93;91.90;;;;;;;2.40;60.35;100224.41;339002;29;981;-69
2022/01/30 00:00:57;;;;;;;404.77;94.20;;;;;;;2.41;60.07;100218.41;338650;29;2025;-70
2022/01/30 00:01:08;;;;;;;405.50;94.07;;;;;;;2.42;59.94;100218.41;342117;28;2551;-70
2022/01/30 00:01:19;;;;;;;406.67;94.40;;;;;;;2.42;60.32;100226.16;339710;28;1098;-69
2022/01/30 00:01:29;;;;;;;410.13;99.65;;;;;;;2.44;60.28;100228.75;340002;28;1435;-70
2022/01/30 00:01:39;;;;;;;396.77;96.03;;;;;;;2.44;59.77;100224.44;341412;28;2013;-70
2022/01/30 00:01:50;;;;;;;389.77;90.85;;;;;;;2.45;59.81;100220.13;341272;28;917;-69
2022/01/30 00:02:00;;;;;;;386.10;88.17;;;;;;;2.44;59.93;100223.56;339622;28;2127;-69
2022/01/30 00:02:10;;;;;;;390.15;90.80;;;;;;;2.44;60.28;100218.41;336098;29;1703;-69
2022/01/30 00:02:21;;;;;;;392.20;95.20;;;;;;;2.42;59.69;100220.13;337158;29;1269;-69
2022/01/30 00:02:31;;;;;;;395.50;97.25;;;;;;;2.43;60.10;100216.69;339838;29;1957;-69
2022/01/30 00:02:42;;;;;;;402.60;98.97;;;;;;;2.43;59.73;100216.69;341185;28;1542;-69
2022/01/30 00:02:52;;;;;;;399.37;97.70;;;;;;;2.44;59.90;100213.25;341424;28;1548;-69
2022/01/30 00:03:02;;;;;;;401.10;95.43;;;;;;;2.45;59.62;100214.97;340962;28;1451;-69
2022/01/30 00:03:15;;;;;;;397.87;93.17;;;;;;;2.45;59.51;100214.97;338732;29;2139;-69
2022/01/30 00:03:25;;;;;;;393.30;90.57;;;;;;;2.46;59.69;100219.28;337339;29;2114;-69
2022/01/30 00:03:35;;;;;;;387.03;88.73;;;;;;;2.47;59.72;100218.41;337356;29;1171;-69
2022/01/30 00:03:46;;;;;;;393.50;90.97;;;;;;;2.47;60.24;100223.56;337460;29;1258;-69
2022/01/30 00:03:56;;;;;;;399.07;92.23;;;;;;;2.47;59.77;100213.25;336062;29;1358;-69
2022/01/30 00:04:07;;;;;;;408.63;100.22;;;;;;;2.49;59.71;100211.53;338335;29;1213;-69
2022/01/30 00:04:17;;;;;;;411.50;102.20;;;;;;;2.47;59.63;100213.25;338890;29;1451;-69
2022/01/30 00:04:27;;;;;;;410.88;100.13;;;;;;;2.48;59.80;100212.38;342570;28;1521;-69
2022/01/30 00:04:38;;;;;;;409.87;96.93;;;;;;;2.48;59.62;100212.38;341056;28;1590;-69
2022/01/30 00:04:48;;;;;;;410.75;99.80;;;;;;;2.47;60.12;100214.09;341421;28;771;-69
2022/01/30 00:04:59;;;;;;;411.53;102.10;;;;;;;2.49;59.65;100221.84;338029;29;2115;-69
2022/01/30 00:05:09;;;;;;;412.38;103.78;;;;;;;2.47;59.56;100214.09;338370;29;2251;-69
2022/01/30 00:05:20;;;;;;;409.70;97.83;;;;;;;2.46;59.18;100214.97;340229;29;840;-69
2022/01/30 00:05:30;;;;;;;410.05;98.00;;;;;;;2.47;59.80;100218.41;339224;29;2303;-70
2022/01/30 00:05:41;;;;;;;410.20;98.03;;;;;;;2.46;59.73;100214.97;339910;29;1889;-69
2022/01/30 00:05:51;;;;;;;413.67;100.43;;;;;;;2.44;59.90;100208.06;340205;29;1029;-69
2022/01/30 00:06:02;;;;;;;412.23;98.93;;;;;;;2.43;59.92;100212.38;339995;29;1293;-70
2022/01/30 00:06:12;;;;;;;412.77;99.30;;;;;;;2.45;59.48;100212.38;339166;29;2307;-69
2022/01/30 00:06:23;;;;;;;411.67;98.50;;;;;;;2.43;59.92;100207.22;338311;29;947;-69
2022/01/30 00:06:33;;;;;;;408.47;96.20;;;;;;;2.42;59.62;100209.78;338416;28;1387;-69
2022/01/30 00:06:44;;;;;;;400.23;92.30;;;;;;;2.39;59.35;100209.78;339811;29;1887;-72
2022/01/30 00:06:54;;;;;;;401.00;93.90;;;;;;;2.38;60.39;100206.34;339987;29;1500;-69
2022/01/30 00:07:05;;;;;;;403.50;98.50;;;;;;;2.32;59.70;100214.94;339267;29;1545;-69
2022/01/30 00:07:15;;;;;;;409.17;99.97;;;;;;;2.29;59.98;100209.75;338559;28;2087;-69
2022/01/30 00:07:26;;;;;;;405.50;97.90;;;;;;;2.23;60.03;100209.75;340951;28;1983;-69
2022/01/30 00:07:36;;;;;;;403.25;95.68;;;;;;;2.24;59.35;100205.44;340130;29;1323;-69
2022/01/30 00:07:46;;;;;;;393.70;91.20;;;;;;;2.23;60.62;100211.47;341191;28;2163;-69
2022/01/30 00:07:57;;;;;;;389.08;87.40;;;;;;;2.21;60.12;100206.28;341141;28;1291;-69
2022/01/30 00:08:07;;;;;;;391.57;86.53;;;;;;;2.21;59.86;100210.59;341288;28;1271;-69
2022/01/30 00:08:18;;;;;;;400.73;89.65;;;;;;;2.20;59.89;100212.31;339800;28;2126;-69
2022/01/30 00:08:29;;;;;;;404.63;92.43;;;;;;;2.20;60.45;100209.75;339834;29;1956;-69
2022/01/30 00:08:39;;;;;;;400.42;90.25;;;;;;;2.22;60.30;100213.19;339942;28;2074;-69
2022/01/30 00:08:50;;;;;;;389.63;83.67;;;;;;;2.24;60.41;100210.59;340193;29;866;-69
2022/01/30 00:09:00;;;;;;;373.52;78.35;;;;;;;2.26;59.77;100214.06;341199;28;2017;-69
2022/01/30 00:09:18;;;;;;;365.30;76.90;;;;;;;2.26;59.99;100212.34;341113;28;2425;-69
2022/01/30 00:09:28;;;;;;;358.23;76.93;;;;;;;2.27;59.91;100213.19;341175;28;1383;-69
2022/01/30 00:09:39;;;;;;;354.30;78.18;;;;;;;2.28;60.16;100210.63;339657;29;1533;-69
2022/01/30 00:09:50;;;;;;;347.15;79.10;;;;;;;2.28;59.47;100208.03;338661;29;895;-69
2022/01/30 00:10:01;;;;;;;345.17;82.88;;;;;;;2.28;60.14;100210.63;338292;29;1265;-69
2022/01/30 00:10:13;;;;;;;347.17;84.80;;;;;;;2.30;60.39;100210.63;338519;29;2034;-69
2022/01/30 00:10:24;;;;;;;347.74;84.02;;;;;;;2.31;60.34;100215.78;338684;29;878;-69
2022/01/30 00:10:39;;;;;;;344.30;82.50;;;;;;;2.32;59.77;100212.34;337406;29;1113;-69
2022/01/30 00:10:56;;;;;;;342.55;81.53;;;;;;;2.33;59.45;100214.06;340209;29;952;-70
2022/01/30 00:11:14;;;;;;;347.70;83.63;;;;;;;2.36;59.63;100209.78;341227;29;913;-69
2022/01/30 00:11:29;;;;;;;354.10;88.38;;;;;;;2.37;59.57;100211.50;341143;29;2051;-68
2022/01/30 00:11:42;;;;;;;359.70;93.80;;;;;;;2.33;59.32;100211.50;341070;29;2013;-68
2022/01/30 00:11:59;;;;;;;361.90;95.13;;;;;;;2.33;59.49;100213.22;339988;29;897;-68
2022/01/30 00:12:10;;;;;;;357.98;90.35;;;;;;;2.36;59.18;100210.63;339854;29;1451;-68
2022/01/30 00:12:28;;;;;;;356.20;88.40;;;;;;;2.39;59.66;100212.38;338469;29;1125;-68
2022/01/30 00:12:48;;;;;;;365.33;88.78;;;;;;;2.36;60.04;100209.78;337272;29;902;-68
2022/01/30 00:13:01;;;;;;;363.02;89.65;;;;;;;2.36;59.44;100207.19;341039;29;1780;-68
2022/01/30 00:13:15;;;;;;;355.90;89.80;;;;;;;2.37;59.46;100207.19;340438;28;1937;-68
2022/01/30 00:13:27;;;;;;;354.26;87.16;;;;;;;2.38;59.90;100208.91;340936;29;2066;-69
2022/01/30 00:13:37;;;;;;;359.67;88.65;;;;;;;2.36;59.63;100207.19;341083;29;882;-69
2022/01/30 00:13:48;;;;;;;372.37;91.17;;;;;;;2.32;59.49;100208.91;339867;29;1665;-69
2022/01/30 00:14:00;;;;;;;375.27;89.78;;;;;;;2.34;59.27;100213.22;339227;29;1803;-69
2022/01/30 00:14:14;;;;;;;375.75;88.40;;;;;;;2.31;59.50;100208.03;339801;29;1894;-69
2022/01/30 00:14:27;;;;;;;364.90;82.55;;;;;;;2.32;59.12;100203.75;339737;29;1910;-69
2022/01/30 00:14:38;;;;;;;356.70;79.03;;;;;;;2.33;59.71;100205.47;339894;29;1762;-69
2022/01/30 00:14:53;;;;;;;361.10;82.88;;;;;;;2.33;59.42;100211.50;339860;29;893;-69
2022/01/30 00:15:04;;;;;;;363.23;86.00;;;;;;;2.32;59.79;100198.56;341233;29;916;-69
2022/01/30 00:15:16;;;;;;;355.90;85.47;;;;;;;2.30;59.50;100210.63;339316;28;1406;-69
2022/01/30 00:15:42;;;;;;;351.17;84.35;;;;;;;2.32;59.69;100204.59;335471;29;911;-69
2022/01/30 00:15:54;;;;;;;357.60;84.63;;;;;;;2.34;59.96;100196.84;338978;29;926;-69
2022/01/30 00:16:08;;;;;;;359.08;83.38;;;;;;;2.33;59.12;100200.31;339502;29;1204;-69
2022/01/30 00:16:21;;;;;;;365.45;87.07;;;;;;;2.33;59.33;100216.66;338465;29;1732;-69
2022/01/30 00:16:35;;;;;;;379.55;97.35;;;;;;;2.33;59.68;100197.72;338457;29;1859;-69
2022/01/30 00:16:46;;;;;;;382.75;99.88;;;;;;;2.34;59.10;100202.88;338498;29;2275;-69
2022/01/30 00:17:03;;;;;;;389.30;101.80;;;;;;;2.36;59.12;100204.63;338918;29;2049;-69
2022/01/30 00:17:20;;;;;;;398.27;101.47;;;;;;;2.36;59.28;100204.63;341142;29;1775;-69
2022/01/30 00:17:38;;;;;;;397.10;97.90;;;;;;;2.36;59.67;100202.88;341856;28;2105;-69
2022/01/30 00:18:05;;;;;;;399.10;100.20;;;;;;;2.38;59.63;100202.91;341241;28;2569;-69
2022/01/30 00:19:00;;;;;;;384.75;91.85;;;;;;;2.31;59.56;100200.31;342072;28;929;-69
2022/01/30 00:19:21;;;;;;;390.92;95.43;;;;;;;2.28;59.40;100202.00;342473;28;1940;-69
2022/01/30 00:19:55;;;;;;;384.88;93.97;;;;;;;2.24;59.70;100195.97;345206;28;2031;-69
2022/01/30 00:20:12;;;;;;;352.27;85.47;;;;;;;2.21;59.81;100201.13;341126;29;976;-69
2022/01/30 00:20:26;;;;;;;346.77;81.50;;;;;;;2.22;59.75;100200.28;341197;29;984;-69
2022/01/30 00:20:39;;;;;;;356.08;83.47;;;;;;;2.24;59.58;100203.72;341106;29;994;-69
2022/01/30 00:21:11;;;;;;;368.08;86.75;;;;;;;2.22;60.02;100197.69;342567;28;1330;-69
2022/01/30 00:21:44;;;;;;;377.48;88.38;;;;;;;2.20;59.44;100204.56;339911;29;884;-69
2022/01/30 00:22:12;;;;;;;373.75;89.55;;;;;;;2.22;59.84;100200.28;342381;28;1678;-69
2022/01/30 00:22:50;;;;;;;376.00;85.65;;;;;;;2.23;59.79;100199.41;342574;28;941;-69
2022/01/30 00:23:12;;;;;;;393.65;91.90;;;;;;;2.24;59.32;100198.56;343696;28;1708;-69
2022/01/30 00:23:26;;;;;;;375.45;79.15;;;;;;;2.24;60.00;100195.97;341026;28;1914;-69
2022/01/30 00:23:43;;;;;;;365.75;78.93;;;;;;;2.23;59.42;100199.41;341075;29;913;-69
2022/01/30 00:24:21;;;;;;;361.42;77.68;;;;;;;2.23;59.69;100194.25;341207;29;917;-69
2022/01/30 00:24:41;;;;;;;373.45;77.43;;;;;;;2.21;60.22;100189.94;339944;28;2010;-69
2022/01/30 00:25:05;;;;;;;391.63;88.78;;;;;;;2.19;60.34;100196.81;342451;28;956;-69
2022/01/30 00:25:19;;;;;;;387.50;90.20;;;;;;;2.18;60.50;100202.84;343446;28;2015;-69
2022/01/30 00:25:43;;;;;;;389.23;85.80;;;;;;;2.21;60.40;100201.13;341574;28;1316;-69
2022/01/30 00:25:56;;;;;;;371.58;81.22;;;;;;;2.21;59.92;100206.28;339785;29;985;-69
2022/01/30 00:26:08;;;;;;;355.40;78.28;;;;;;;2.21;59.69;100203.72;341239;29;972;-69
2022/01/30 00:26:20;;;;;;;346.08;75.20;;;;;;;2.18;60.15;100200.25;340963;29;2039;-69
2022/01/30 00:26:33;;;;;;;343.08;73.35;;;;;;;2.19;59.77;100202.84;340505;29;2029;-69
2022/01/30 00:26:46;;;;;;;340.02;72.85;;;;;;;2.20;60.67;100204.56;340569;29;1676;-69
2022/01/30 00:26:57;;;;;;;339.25;73.30;;;;;;;2.19;60.07;100200.25;340029;29;1803;-69
2022/01/30 00:27:15;;;;;;;341.67;75.15;;;;;;;2.17;59.93;100204.56;342593;28;979;-69
2022/01/30 00:27:32;;;;;;;340.05;77.85;;;;;;;2.18;59.93;100205.44;341247;28;2001;-69
2022/01/30 00:27:55;;;;;;;336.02;75.32;;;;;;;2.17;59.47;100201.13;342485;28;2107;-69
2022/01/30 00:28:07;;;;;;;331.83;69.80;;;;;;;2.19;59.93;100208.00;339876;28;960;-69
2022/01/30 00:28:20;;;;;;;332.45;72.43;;;;;;;2.18;59.90;100206.28;341062;29;2165;-69
2022/01/30 00:28:32;;;;;;;336.67;77.57;;;;;;;2.17;60.54;100204.56;340035;29;1724;-69
2022/01/30 00:28:43;;;;;;;344.00;80.22;;;;;;;2.19;59.54;100196.81;338865;29;2213;-69
2022/01/30 00:28:53;;;;;;;349.63;80.93;;;;;;;2.16;60.48;100202.88;341161;28;1510;-69
2022/01/30 00:29:04;;;;;;;349.48;79.63;;;;;;;2.16;59.71;100202.88;337245;29;1136;-69
2022/01/30 00:29:14;;;;;;;354.02;79.43;;;;;;;2.18;60.18;100205.44;339084;29;2071;-69
2022/01/30 00:29:25;;;;;;;349.63;77.03;;;;;;;2.15;60.33;100206.31;338524;29;1783;-69
2022/01/30 00:29:35;;;;;;;350.15;78.15;;;;;;;2.13;59.90;100202.88;338494;29;1437;-69
2022/01/30 00:29:46;;;;;;;352.77;76.67;;;;;;;2.11;59.74;100199.41;337194;29;2127;-69
2022/01/30 00:29:56;;;;;;;361.13;78.72;;;;;;;2.10;60.00;100202.84;337227;29;1796;-69
2022/01/30 00:30:09;;;;;;;359.97;79.27;;;;;;;2.09;60.26;100201.13;339901;29;977;-69
2022/01/30 00:30:19;;;;;;;353.15;78.80;;;;;;;2.09;60.24;100206.28;341130;29;984;-68
2022/01/30 00:30:34;;;;;;;345.27;76.53;;;;;;;2.09;60.34;100201.13;341046;29;1943;-68
2022/01/30 00:30:45;;;;;;;349.13;78.40;;;;;;;2.10;60.29;100202.00;341132;29;2063;-68
2022/01/30 00:30:55;;;;;;;367.63;81.43;;;;;;;2.11;60.13;100199.41;342496;28;952;-68
2022/01/30 00:31:06;;;;;;;388.10;83.85;;;;;;;2.13;59.68;100208.03;341010;29;865;-68
2022/01/30 00:31:19;;;;;;;391.07;81.17;;;;;;;2.09;59.80;100203.72;339793;29;2052;-68
2022/01/30 00:31:31;;;;;;;392.45;82.05;;;;;;;2.06;60.33;100203.69;341869;28;2050;-68
2022/01/30 00:31:42;;;;;;;395.58;83.13;;;;;;;2.10;60.75;100213.19;342623;28;2093;-68
2022/01/30 00:31:53;;;;;;;393.77;82.50;;;;;;;2.10;60.35;100208.00;343899;28;1013;-68
2022/01/30 00:32:03;;;;;;;390.00;81.57;;;;;;;2.09;59.89;100211.44;343779;28;2384;-68
2022/01/30 00:32:14;;;;;;;388.88;81.18;;;;;;;2.12;60.24;100208.03;343588;28;1621;-68
2022/01/30 00:32:24;;;;;;;388.37;79.87;;;;;;;2.13;60.71;100208.03;343865;28;1258;-68
2022/01/30 00:32:35;;;;;;;389.13;81.25;;;;;;;2.13;59.87;100210.59;342540;28;1868;-68
2022/01/30 00:32:45;;;;;;;388.43;79.97;;;;;;;2.13;59.98;100210.59;341882;28;2354;-68
2022/01/30 00:32:56;;;;;;;388.40;79.72;;;;;;;2.13;59.52;100213.19;341140;28;1144;-68
2022/01/30 00:33:06;;;;;;;387.73;79.50;;;;;;;2.11;60.32;100214.91;340972;29;2369;-68
2022/01/30 00:33:17;;;;;;;388.23;78.78;;;;;;;2.08;59.67;100204.56;341298;28;1540;-68
2022/01/30 00:33:27;;;;;;;388.17;78.43;;;;;;;2.11;60.05;100211.47;340958;29;2439;-68
2022/01/30 00:33:38;;;;;;;387.83;78.23;;;;;;;2.09;59.94;100208.88;341187;29;954;-68
2022/01/30 00:33:48;;;;;;;387.77;78.53;;;;;;;2.08;59.95;100211.44;340722;28;1994;-68
2022/01/30 00:33:59;;;;;;;390.15;80.57;;;;;;;2.04;59.82;100214.88;341164;28;1676;-68
2022/01/30 00:34:09;;;;;;;392.10;80.82;;;;;;;2.02;59.73;100212.28;341192;29;885;-68
2022/01/30 00:34:20;;;;;;;392.23;81.50;;;;;;;2.01;60.84;100207.97;343729;28;1839;-68
2022/01/30 00:34:30;;;;;;;391.27;82.17;;;;;;;2.00;59.80;100211.41;342887;28;2154;-68
2022/01/30 00:34:41;;;;;;;389.53;82.47;;;;;;;2.02;60.37;100209.72;339835;29;1319;-68
2022/01/30 00:34:51;;;;;;;390.48;81.65;;;;;;;2.01;60.04;100205.41;338539;29;999;-68
2022/01/30 00:35:01;;;;;;;390.17;79.20;;;;;;;2.04;60.15;100212.28;339244;29;1308;-68
2022/01/30 00:35:12;;;;;;;392.00;77.68;;;;;;;2.06;60.55;100210.59;341059;29;2191;-68
2022/01/30 00:35:22;;;;;;;394.60;79.03;;;;;;;2.07;60.88;100210.59;342523;28;915;-68
2022/01/30 00:35:33;;;;;;;393.30;78.83;;;;;;;2.07;60.23;100202.84;340975;29;1759;-68
2022/01/30 00:35:44;;;;;;;390.83;79.00;;;;;;;2.11;60.26;100208.88;340141;29;2099;-68
2022/01/30 00:35:54;;;;;;;390.83;78.67;;;;;;;2.13;60.35;100208.03;341248;29;882;-68
2022/01/30 00:36:04;;;;;;;394.05;79.82;;;;;;;2.13;60.15;100205.44;340948;29;1849;-68
2022/01/30 00:36:15;;;;;;;395.83;80.20;;;;;;;2.13;60.71;100210.59;340971;29;1817;-68
2022/01/30 00:36:26;;;;;;;398.73;81.22;;;;;;;2.12;60.19;100208.88;341157;29;905;-68
2022/01/30 00:36:36;;;;;;;399.73;81.80;;;;;;;2.11;60.27;100209.75;337320;29;912;-68
2022/01/30 00:36:47;;;;;;;401.20;83.60;;;;;;;2.08;59.80;100208.88;338015;29;1216;-67
2022/01/30 00:36:57;;;;;;;401.92;85.18;;;;;;;2.07;60.64;100201.97;338443;29;1742;-67
2022/01/30 00:37:07;;;;;;;403.83;86.20;;;;;;;2.07;60.34;100208.00;339918;29;996;-69
2022/01/30 00:37:18;;;;;;;404.95;86.75;;;;;;;2.07;60.39;100207.16;338479;29;2067;-68
2022/01/30 00:37:28;;;;;;;403.77;85.93;;;;;;;2.08;60.64;100207.16;342420;28;1812;-68
2022/01/30 00:37:42;;;;;;;402.30;86.13;;;;;;;2.09;59.90;100206.28;339775;29;1222;-68
2022/01/30 00:37:52;;;;;;;400.13;84.70;;;;;;;2.10;60.34;100207.16;338503;29;1037;-68
2022/01/30 00:38:03;;;;;;;401.48;84.57;;;;;;;2.11;60.28;100209.75;337317;29;1021;-68
2022/01/30 00:38:19;;;;;;;385.60;80.10;;;;;;;2.11;60.03;100199.41;339832;29;2073;-68
2022/01/30 00:38:31;;;;;;;351.17;73.55;;;;;;;2.13;60.15;100208.03;338712;29;964;-69
2022/01/30 00:38:41;;;;;;;336.98;72.22;;;;;;;2.14;59.69;100203.72;339911;29;865;-69
2022/01/30 00:38:52;;;;;;;332.58;70.80;;;;;;;2.14;60.59;100203.72;341404;29;988;-69
2022/01/30 00:39:02;;;;;;;334.23;70.40;;;;;;;2.14;60.23;100202.00;342009;28;1709;-68
2022/01/30 00:39:13;;;;;;;347.65;70.18;;;;;;;2.15;60.11;100208.91;340053;29;1786;-68
2022/01/30 00:39:23;;;;;;;369.93;73.27;;;;;;;2.12;60.22;100205.44;339960;29;1272;-68
2022/01/30 00:39:34;;;;;;;382.85;74.60;;;;;;;2.09;60.36;100210.59;338708;29;2072;-68
2022/01/30 00:39:44;;;;;;;387.30;76.70;;;;;;;2.10;60.13;100202.84;338761;29;1779;-68
2022/01/30 00:39:54;;;;;;;387.00;76.75;;;;;;;2.11;60.37;100202.00;341354;29;919;-68
2022/01/30 00:40:06;;;;;;;386.87;76.70;;;;;;;2.10;60.33;100208.00;341427;29;2023;-68
2022/01/30 00:40:16;;;;;;;384.73;75.57;;;;;;;2.13;59.95;100208.03;340361;29;1753;-68
2022/01/30 00:40:27;;;;;;;387.45;76.88;;;;;;;2.13;60.04;100210.59;341408;29;936;-68
2022/01/30 00:40:38;;;;;;;387.73;76.37;;;;;;;2.15;60.30;100211.47;341299;28;1914;-68
2022/01/30 00:40:49;;;;;;;385.02;76.22;;;;;;;2.17;60.01;100214.03;339286;29;2019;-68
2022/01/30 00:41:00;;;;;;;380.17;74.05;;;;;;;2.18;60.17;100206.28;341375;28;2189;-68
2022/01/30 00:41:10;;;;;;;378.80;74.13;;;;;;;2.18;59.84;100206.28;342517;28;1060;-68
2022/01/30 00:41:20;;;;;;;377.73;75.63;;;;;;;2.20;60.06;100207.16;342539;28;1871;-68
2022/01/30 00:41:31;;;;;;;372.60;77.80;;;;;;;2.20;59.95;100203.72;342564;28;1726;-68
2022/01/30 00:41:41;;;;;;;370.70;79.63;;;;;;;2.22;60.25;100207.16;338619;29;1549;-68
2022/01/30 00:41:52;;;;;;;369.63;77.70;;;;;;;2.23;59.78;100202.00;340781;28;1803;-68
2022/01/30 00:42:02;;;;;;;369.10;75.43;;;;;;;2.19;60.10;100210.59;341225;29;1778;-68
2022/01/30 00:42:12;;;;;;;368.08;74.70;;;;;;;2.14;59.88;100209.75;341165;28;1548;-68
2022/01/30 00:42:24;;;;;;;373.03;76.63;;;;;;;2.11;59.64;100209.75;339944;29;2055;-68
2022/01/30 00:42:34;;;;;;;378.60;78.97;;;;;;;2.08;59.96;100203.72;341209;29;890;-68
2022/01/30 00:42:44;;;;;;;373.55;76.88;;;;;;;2.06;60.34;100206.28;341088;29;1990;-68
2022/01/30 00:42:55;;;;;;;365.00;74.73;;;;;;;2.06;59.86;100205.41;341252;29;1244;-68
2022/01/30 00:43:05;;;;;;;369.10;75.18;;;;;;;2.07;60.86;100199.41;338544;29;2022;-68
2022/01/30 00:43:16;;;;;;;383.73;77.43;;;;;;;2.06;60.11;100205.41;339927;29;2116;-68
2022/01/30 00:43:26;;;;;;;391.10;78.88;;;;;;;2.07;60.29;100202.84;339962;29;1978;-68
2022/01/30 00:43:36;;;;;;;391.60;79.00;;;;;;;2.11;60.53;100208.88;342255;28;1764;-68
2022/01/30 00:43:47;;;;;;;394.17;79.78;;;;;;;2.08;60.19;100204.56;342534;28;2289;-68
2022/01/30 00:43:57;;;;;;;395.00;80.63;;;;;;;2.09;60.06;100198.53;342569;28;850;-68
2022/01/30 00:44:08;;;;;;;382.70;79.60;;;;;;;2.10;60.39;100202.84;341129;29;1910;-68
2022/01/30 00:44:18;;;;;;;372.93;77.43;;;;;;;2.11;60.46;100199.41;339617;29;1950;-68
2022/01/30 00:44:28;;;;;;;369.95;77.13;;;;;;;2.11;59.91;100203.72;340999;29;1699;-68
2022/01/30 00:44:39;;;;;;;379.00;78.03;;;;;;;2.08;60.05;100199.41;339909;29;997;-68
2022/01/30 00:44:49;;;;;;;386.30;79.70;;;;;;;2.05;60.55;100199.41;337735;29;2062;-68
2022/01/30 00:45:00;;;;;;;386.00;76.60;;;;;;;2.04;60.02;100202.84;339787;29;1860;-68
2022/01/30 00:45:10;;;;;;;381.90;74.13;;;;;;;2.04;60.08;100197.66;342471;28;1361;-68
2022/01/30 00:45:20;;;;;;;381.13;73.07;;;;;;;2.05;59.59;100204.56;341193;29;2261;-68
2022/01/30 00:45:31;;;;;;;382.73;75.47;;;;;;;2.07;59.91;100200.25;340950;29;2152;-68
2022/01/30 00:45:42;;;;;;;382.80;76.20;;;;;;;2.07;60.15;100197.69;338589;29;859;-68
2022/01/30 00:45:52;;;;;;;373.05;75.32;;;;;;;2.07;60.75;100202.84;339840;29;2062;-68
2022/01/30 00:46:02;;;;;;;370.13;75.10;;;;;;;2.08;60.63;100201.97;339758;29;2236;-68
2022/01/30 00:46:13;;;;;;;364.90;74.13;;;;;;;2.10;60.33;100196.81;339754;29;876;-68
2022/01/30 00:46:23;;;;;;;368.57;74.13;;;;;;;2.11;59.99;100202.00;339879;29;948;-68
2022/01/30 00:46:33;;;;;;;365.40;73.43;;;;;;;2.12;60.49;100198.56;342424;28;2075;-68
2022/01/30 00:46:44;;;;;;;367.03;74.43;;;;;;;2.10;60.10;100194.25;342550;28;857;-68
2022/01/30 00:46:56;;;;;;;368.02;75.47;;;;;;;2.07;60.03;100192.53;342506;28;971;-68
2022/01/30 00:47:08;;;;;;;371.08;78.07;;;;;;;2.06;59.94;100193.38;342089;28;2107;-68
2022/01/30 00:47:19;;;;;;;371.10;78.22;;;;;;;2.03;60.15;100195.09;342472;28;2068;-68
2022/01/30 00:47:29;;;;;;;368.17;76.20;;;;;;;1.97;60.48;100193.34;340919;29;1331;-68
2022/01/30 00:47:39;;;;;;;370.87;75.40;;;;;;;1.94;60.56;100195.91;339863;29;1615;-68
2022/01/30 00:47:50;;;;;;;377.80;75.65;;;;;;;1.94;60.25;100196.78;339762;29;1638;-68
2022/01/30 00:48:01;;;;;;;383.40;76.50;;;;;;;1.96;60.49;100196.78;338570;29;2267;-68
2022/01/30 00:48:11;;;;;;;385.00;77.38;;;;;;;1.97;60.56;100191.63;339862;29;976;-68
2022/01/30 00:48:21;;;;;;;386.90;78.20;;;;;;;1.99;60.22;100189.03;339772;29;2027;-68
2022/01/30 00:48:32;;;;;;;388.92;78.45;;;;;;;1.99;60.15;100186.47;341134;29;2141;-68
2022/01/30 00:48:42;;;;;;;390.67;77.70;;;;;;;2.01;60.72;100192.50;339909;29;944;-68
2022/01/30 00:48:53;;;;;;;389.08;76.82;;;;;;;1.96;60.23;100191.63;340891;29;2060;-68
2022/01/30 00:49:03;;;;;;;388.47;76.00;;;;;;;1.95;60.75;100195.91;341167;29;973;-68
2022/01/30 00:49:14;;;;;;;386.77;77.80;;;;;;;1.96;60.68;100194.19;341192;29;894;-68
2022/01/30 00:49:24;;;;;;;381.87;78.23;;;;;;;1.97;59.80;100195.94;340465;28;1074;-68
2022/01/30 00:49:35;;;;;;;376.42;78.13;;;;;;;1.97;60.79;100195.94;341060;29;2008;-68
2022/01/30 00:49:45;;;;;;;376.73;76.00;;;;;;;1.99;60.71;100195.06;341017;29;2270;-68
2022/01/30 00:49:57;;;;;;;382.07;77.13;;;;;;;2.01;60.09;100195.06;338519;29;957;-68
2022/01/30 00:50:07;;;;;;;385.95;77.47;;;;;;;2.02;60.36;100189.06;338926;29;1853;-68
2022/01/30 00:50:18;;;;;;;385.88;76.97;;;;;;;2.05;59.98;100189.06;340946;29;2153;-68
2022/01/30 00:50:28;;;;;;;385.43;76.30;;;;;;;2.05;60.29;100196.81;341140;29;956;-68
2022/01/30 00:50:39;;;;;;;386.48;77.20;;;;;;;2.04;59.93;100196.81;339599;29;2055;-68
2022/01/30 00:50:49;;;;;;;387.43;77.83;;;;;;;2.01;60.26;100187.34;339191;29;2048;-68
2022/01/30 00:51:00;;;;;;;388.45;78.32;;;;;;;2.01;60.10;100189.91;340996;29;1605;-69
2022/01/30 00:51:10;;;;;;;382.27;75.53;;;;;;;2.00;60.64;100188.19;339850;29;1259;-68
2022/01/30 00:51:20;;;;;;;374.80;73.22;;;;;;;1.99;60.07;100196.78;341928;28;2066;-68
2022/01/30 00:51:31;;;;;;;370.40;73.23;;;;;;;2.00;60.13;100196.78;342380;28;1663;-68
2022/01/30 00:51:41;;;;;;;374.35;75.38;;;;;;;2.00;60.51;100190.78;339887;29;861;-68
2022/01/30 00:51:52;;;;;;;374.87;76.00;;;;;;;2.02;59.69;100191.63;339847;29;1982;-69
2022/01/30 00:52:02;;;;;;;375.70;75.45;;;;;;;2.01;60.44;100182.16;339765;29;1677;-69
2022/01/30 00:52:16;;;;;;;378.33;78.05;;;;;;;1.98;60.96;100189.91;341046;29;894;-69
2022/01/30 00:52:27;;;;;;;376.23;77.13;;;;;;;1.96;60.22;100189.03;339867;29;930;-69
2022/01/30 00:52:37;;;;;;;363.47;74.73;;;;;;;1.97;60.17;100188.19;338312;29;1686;-69
2022/01/30 00:52:53;;;;;;;340.17;69.90;;;;;;;1.96;60.22;100184.75;340931;29;1707;-69
2022/01/30 00:53:03;;;;;;;326.88;70.68;;;;;;;1.93;60.03;100189.88;341154;29;2139;-69
2022/01/30 00:53:15;;;;;;;333.13;74.03;;;;;;;1.92;60.81;100192.47;339722;28;1206;-69
2022/01/30 00:53:26;;;;;;;337.10;75.32;;;;;;;1.94;60.02;100193.34;339840;29;2281;-69
2022/01/30 00:53:36;;;;;;;333.88;73.78;;;;;;;1.94;60.38;100185.59;338963;29;2078;-69
2022/01/30 00:53:46;;;;;;;334.30;71.45;;;;;;;1.93;59.96;100189.88;338363;29;1714;-69
2022/01/30 00:53:57;;;;;;;332.53;70.23;;;;;;;1.93;60.38;100186.44;339892;29;1256;-69
2022/01/30 00:54:07;;;;;;;339.17;70.40;;;;;;;1.93;60.47;100189.03;339854;29;2204;-69
2022/01/30 00:54:17;;;;;;;349.53;72.40;;;;;;;1.92;59.97;100182.13;339726;29;2004;-69
2022/01/30 00:54:28;;;;;;;365.73;74.15;;;;;;;1.95;60.06;100187.31;339781;29;1871;-69
2022/01/30 00:54:39;;;;;;;370.80;74.07;;;;;;;1.94;60.38;100185.59;339688;28;2028;-69
2022/01/30 00:54:49;;;;;;;371.70;72.40;;;;;;;1.94;59.96;100185.59;339715;29;2147;-69
2022/01/30 00:55:00;;;;;;;368.20;71.45;;;;;;;1.94;60.21;100185.59;342473;28;1208;-69
2022/01/30 00:55:10;;;;;;;363.70;71.57;;;;;;;1.95;59.95;100183.00;342471;28;2092;-69
2022/01/30 00:55:24;;;;;;;363.23;71.53;;;;;;;1.92;60.29;100179.56;342356;28;2042;-69
2022/01/30 00:55:35;;;;;;;365.85;70.32;;;;;;;1.86;59.89;100177.81;342385;28;1669;-70
2022/01/30 00:55:45;;;;;;;363.73;69.37;;;;;;;1.86;60.44;100182.97;342513;28;956;-70
2022/01/30 00:55:55;;;;;;;365.20;69.63;;;;;;;1.88;60.03;100180.41;341121;29;1992;-70
2022/01/30 00:56:08;;;;;;;361.73;69.03;;;;;;;1.88;60.61;100185.56;341049;29;1889;-70
2022/01/30 00:56:18;;;;;;;365.16;70.08;;;;;;;1.88;60.49;100181.25;337222;29;946;-70
2022/01/30 00:56:28;;;;;;;364.17;69.73;;;;;;;1.88;60.25;100178.69;338380;29;1214;-70
2022/01/30 00:56:39;;;;;;;363.47;69.43;;;;;;;1.87;60.47;100183.84;341817;28;2055;-69
2022/01/30 00:56:49;;;;;;;359.15;68.97;;;;;;;1.88;60.20;100181.25;342378;28;2013;-69
2022/01/30 00:57:00;;;;;;;358.92;69.38;;;;;;;1.88;60.04;100180.41;342498;28;1032;-69
2022/01/30 00:57:10;;;;;;;365.57;72.93;;;;;;;1.89;60.46;100180.41;339870;29;2099;-69